Terminal Aerodrome Forecast
Issued by NWS

Home | Current Version | Previous Version | Text Only | Print | Product List | Glossary On
Versions: 1 2 3 4 5 6 7 8 9 10 11 12 13 14 15 16 17
000
FTAK31 PAJN 011900 AAA
TAFAWG
TAF AMD
PAWG 011927Z 0119/0218 VRB03KT P6SM -SHRA SCT005 BKN010 OVC030
     FM012100 30005KT 4SM -SHRA SCT007 OVC015
     FM020400 27004KT P6SM VCSH SCT010 OVC020
     FM020900 VRB02KT 4SM BR VCFG BKN007 BKN030
     FM021400 25003KT 6SM BR FEW007 BKN040
      AMD LTD TO CLD VIS AND WIND 0206/0215=

USA.gov is the U.S. government's official web portal to all federal, state and local government web resources and services.